createdAt,value
2023-02-20T00:00:37.101Z,101949.40
2023-02-20T00:03:04.987Z,101947.17
2023-02-20T00:05:31.728Z,101949.34
2023-02-20T00:07:58.906Z,101946.30
2023-02-20T00:10:25.799Z,101946.02
2023-02-20T00:12:53.006Z,101942.17
2023-02-20T00:15:21.707Z,101944.34
2023-02-20T00:17:49.240Z,101944.81
2023-02-20T00:20:22.002Z,101951.06
2023-02-20T00:22:49.743Z,101954.05
2023-02-20T00:25:19.309Z,101959.10
2023-02-20T00:27:46.537Z,101961.00
2023-02-20T00:30:19.705Z,101966.14
2023-02-20T00:32:47.479Z,101965.46
2023-02-20T00:35:15.142Z,101960.27
2023-02-20T00:37:41.864Z,101961.31
2023-02-20T00:40:09.270Z,101961.02
2023-02-20T00:42:35.912Z,101963.58
2023-02-20T00:45:02.783Z,101966.16
2023-02-20T00:47:30.421Z,101970.59
2023-02-20T00:49:57.196Z,101972.35
2023-02-20T00:52:24.765Z,101970.24
2023-02-20T00:54:52.472Z,101971.86
2023-02-20T00:57:19.187Z,101968.17
2023-02-20T00:59:46.063Z,101965.13
2023-02-20T01:02:12.755Z,101968.52
2023-02-20T01:04:39.571Z,101973.05
2023-02-20T01:07:06.313Z,101975.59
2023-02-20T01:09:32.974Z,101973.75
2023-02-20T01:11:59.612Z,101970.07
2023-02-20T01:14:26.283Z,101972.19
2023-02-20T01:16:54.217Z,101973.31
2023-02-20T01:19:22.973Z,101969.62
2023-02-20T01:21:50.469Z,101970.96
2023-02-20T01:24:18.279Z,101975.70
2023-02-20T01:26:49.101Z,101973.94
2023-02-20T01:29:18.192Z,101976.09
2023-02-20T01:31:49.458Z,101973.01
2023-02-20T01:34:17.289Z,101964.56
2023-02-20T01:36:52.109Z,101953.98
2023-02-20T01:39:21.634Z,101951.88
2023-02-20T01:41:50.881Z,101954.84
2023-02-20T01:44:22.068Z,101955.24
2023-02-20T01:46:52.195Z,101958.60
2023-02-20T01:49:27.242Z,101957.98
2023-02-20T01:52:06.337Z,101958.88
2023-02-20T01:54:36.262Z,101958.77
2023-02-20T01:57:06.589Z,101965.75
2023-02-20T01:59:37.939Z,101966.60
2023-02-20T02:02:06.893Z,101976.60
2023-02-20T02:04:36.149Z,101988.44
2023-02-20T02:07:03.236Z,101989.39
2023-02-20T02:09:41.089Z,101985.50
2023-02-20T02:12:08.222Z,101991.44
2023-02-20T02:14:36.236Z,102003.48
2023-02-20T02:17:18.233Z,101999.36
2023-02-20T02:20:22.621Z,101999.00
2023-02-20T02:23:27.699Z,101998.32
2023-02-20T02:26:22.488Z,101996.19
2023-02-20T02:29:13.957Z,101995.64
2023-02-20T02:32:11.894Z,101992.43
2023-02-20T02:35:13.992Z,101990.18
2023-02-20T02:38:18.031Z,101984.70
2023-02-20T02:41:00.735Z,101993.66
2023-02-20T02:43:49.499Z,101999.80
2023-02-20T02:46:27.621Z,102000.77
2023-02-20T02:49:01.333Z,102003.64
2023-02-20T02:51:33.755Z,102006.02
2023-02-20T02:54:09.570Z,102010.23
2023-02-20T02:56:38.558Z,102007.09
2023-02-20T02:59:09.649Z,102010.88
2023-02-20T03:01:43.082Z,102004.80
2023-02-20T03:04:12.583Z,102006.98
2023-02-20T03:06:45.070Z,102012.09
2023-02-20T03:09:19.846Z,102012.71
2023-02-20T03:11:47.173Z,102015.20
2023-02-20T03:14:38.904Z,102016.18
2023-02-20T03:17:10.997Z,102022.73
2023-02-20T03:19:44.054Z,102021.63
2023-02-20T03:22:14.077Z,102023.59
2023-02-20T03:24:55.391Z,102025.46
2023-02-20T03:27:58.177Z,102027.56
2023-02-20T03:30:29.180Z,102020.38
2023-02-20T03:33:39.854Z,102018.68
2023-02-20T03:36:31.148Z,102025.02
2023-02-20T03:39:22.775Z,102031.44
2023-02-20T03:42:09.327Z,102028.34
2023-02-20T03:44:39.094Z,102024.55
2023-02-20T03:47:10.971Z,102027.19
2023-02-20T03:49:42.463Z,102031.86
2023-02-20T03:52:11.197Z,102028.66
2023-02-20T03:54:40.017Z,102029.06
2023-02-20T03:57:14.494Z,102033.40
2023-02-20T03:59:56.488Z,102036.44
2023-02-20T04:02:29.736Z,102043.62
2023-02-20T04:05:01.927Z,102045.38
2023-02-20T04:07:33.782Z,102048.23
2023-02-20T04:10:07.163Z,102056.44
2023-02-20T04:12:39.016Z,102061.69
2023-02-20T04:15:07.643Z,102065.67
2023-02-20T04:17:40.142Z,102063.94
2023-02-20T04:20:07.299Z,102063.66
2023-02-20T04:22:39.976Z,102062.54
2023-02-20T04:25:16.128Z,102068.58
2023-02-20T04:27:42.952Z,102074.40
2023-02-20T04:30:10.632Z,102077.27
2023-02-20T04:32:37.487Z,102074.30
2023-02-20T04:35:04.445Z,102074.30
2023-02-20T04:37:31.292Z,102067.61
2023-02-20T04:39:58.257Z,102065.85
2023-02-20T04:42:25.097Z,102066.39
2023-02-20T04:44:52.615Z,102068.38
2023-02-20T04:47:19.332Z,102078.05
2023-02-20T04:49:46.100Z,102085.52
2023-02-20T04:52:16.435Z,102088.23
2023-02-20T04:54:43.133Z,102093.96
2023-02-20T04:57:10.845Z,102092.14
2023-02-20T04:59:37.620Z,102090.36
2023-02-20T05:02:04.648Z,102087.79
2023-02-20T05:04:31.414Z,102090.23
2023-02-20T05:06:58.508Z,102093.83
2023-02-20T05:09:25.533Z,102097.66
2023-02-20T05:11:52.981Z,102101.15
2023-02-20T05:14:21.128Z,102104.14
2023-02-20T05:16:49.259Z,102102.67
2023-02-20T05:19:16.092Z,102098.19
2023-02-20T05:22:04.495Z,102096.09
2023-02-20T05:24:32.318Z,102097.94
2023-02-20T05:27:00.056Z,102093.35
2023-02-20T05:29:27.173Z,102094.62
2023-02-20T05:31:55.820Z,102104.31
2023-02-20T05:34:22.829Z,102107.95
2023-02-20T05:36:49.813Z,102105.66
2023-02-20T05:39:16.747Z,102107.71
2023-02-20T05:41:43.565Z,102104.62
2023-02-20T05:44:10.436Z,102103.48
2023-02-20T05:46:41.998Z,102100.01
2023-02-20T05:49:09.975Z,102096.38
2023-02-20T05:51:37.787Z,102092.52
2023-02-20T05:54:04.981Z,102093.44
2023-02-20T05:56:33.200Z,102099.51
2023-02-20T05:59:01.433Z,102102.30
2023-02-20T06:01:31.251Z,102102.53
2023-02-20T06:03:58.350Z,102107.08
2023-02-20T06:06:32.915Z,102111.26
2023-02-20T06:08:59.724Z,102114.21
2023-02-20T06:11:26.653Z,102114.33
2023-02-20T06:13:53.654Z,102115.40
2023-02-20T06:16:26.043Z,102121.88
2023-02-20T06:18:53.329Z,102121.96
2023-02-20T06:21:23.354Z,102122.41
2023-02-20T06:23:58.884Z,102129.69
2023-02-20T06:26:25.720Z,102130.23
2023-02-20T06:28:54.873Z,102133.55
2023-02-20T06:31:28.893Z,102131.48
2023-02-20T06:33:56.739Z,102132.02
2023-02-20T06:36:27.528Z,102139.37
2023-02-20T06:38:57.420Z,102140.24
2023-02-20T06:41:25.284Z,102139.67
2023-02-20T06:43:52.022Z,102140.67
2023-02-20T06:46:19.891Z,102142.41
2023-02-20T06:48:48.585Z,102148.78
2023-02-20T06:51:23.831Z,102153.43
2023-02-20T06:53:50.828Z,102160.98
2023-02-20T06:56:20.734Z,102165.52
2023-02-20T06:58:48.369Z,102168.46
2023-02-20T07:01:16.581Z,102178.14
2023-02-20T07:03:45.009Z,102182.78
2023-02-20T07:06:12.134Z,102182.95
2023-02-20T07:08:39.434Z,102182.30
2023-02-20T07:11:06.179Z,102178.18
2023-02-20T07:13:34.482Z,102179.02
2023-02-20T07:16:01.356Z,102180.61
2023-02-20T07:18:28.162Z,102181.62
2023-02-20T07:20:55.500Z,102177.67
2023-02-20T07:23:22.712Z,102179.80
2023-02-20T07:25:50.365Z,102177.37
2023-02-20T07:28:18.898Z,102179.08
2023-02-20T07:30:49.167Z,102179.02
2023-02-20T07:33:17.570Z,102180.20
2023-02-20T07:35:45.148Z,102183.36
2023-02-20T07:38:12.378Z,102188.48
2023-02-20T07:40:40.179Z,102188.36
2023-02-20T07:43:07.522Z,102190.23
2023-02-20T07:45:39.437Z,102193.27
2023-02-20T07:48:06.242Z,102192.45
2023-02-20T07:50:33.033Z,102194.04
2023-02-20T07:52:59.775Z,102189.40
2023-02-20T07:55:26.419Z,102187.63
2023-02-20T07:57:54.584Z,102183.02
2023-02-20T08:00:22.396Z,102182.76
2023-02-20T08:02:49.121Z,102188.69
2023-02-20T08:05:16.412Z,102194.54
2023-02-20T08:07:48.699Z,102190.92
2023-02-20T08:10:17.507Z,102194.02
2023-02-20T08:12:44.550Z,102195.73
2023-02-20T08:15:14.203Z,102196.23
2023-02-20T08:17:46.812Z,102201.23
2023-02-20T08:20:18.963Z,102201.55
2023-02-20T08:22:46.735Z,102204.37
2023-02-20T08:25:14.196Z,102201.65
2023-02-20T08:27:45.932Z,102204.73
2023-02-20T08:30:24.339Z,102207.17
2023-02-20T08:32:52.215Z,102207.83
2023-02-20T08:35:19.560Z,102211.46
2023-02-20T08:37:46.402Z,102218.37
2023-02-20T08:40:13.727Z,102220.80
2023-02-20T08:42:40.663Z,102219.20
2023-02-20T08:45:08.728Z,102215.29
2023-02-20T08:47:35.494Z,102216.24
2023-02-20T08:50:02.479Z,102218.84
2023-02-20T08:52:30.794Z,102219.70
2023-02-20T08:54:58.401Z,102218.80
2023-02-20T08:57:25.280Z,102225.10
2023-02-20T08:59:51.957Z,102226.77
2023-02-20T09:02:24.777Z,102229.31
2023-02-20T09:04:51.509Z,102223.42
2023-02-20T09:07:18.240Z,102218.80
2023-02-20T09:09:45.121Z,102221.95
2023-02-20T09:12:12.264Z,102226.02
2023-02-20T09:14:39.114Z,102221.38
2023-02-20T09:17:06.649Z,102225.79
2023-02-20T09:19:33.558Z,102223.65
2023-02-20T09:22:00.880Z,102223.81
2023-02-20T09:24:34.343Z,102223.48
2023-02-20T09:27:08.721Z,102217.02
2023-02-20T09:29:39.082Z,102215.81
2023-02-20T09:32:05.906Z,102214.83
2023-02-20T09:34:32.698Z,102213.09
2023-02-20T09:36:59.492Z,102215.05
2023-02-20T09:39:26.317Z,102213.79
2023-02-20T09:42:15.972Z,102211.42
2023-02-20T09:45:01.208Z,102210.16
2023-02-20T09:47:28.092Z,102205.09
2023-02-20T09:50:00.050Z,102202.06
2023-02-20T09:52:27.280Z,102198.64
2023-02-20T09:55:03.216Z,102198.93
2023-02-20T09:57:30.889Z,102193.86
2023-02-20T10:00:06.677Z,102192.24
2023-02-20T10:02:40.103Z,102193.84
2023-02-20T10:05:19.471Z,102191.95
2023-02-20T10:07:49.103Z,102199.93
2023-02-20T10:10:39.457Z,102194.29
2023-02-20T10:13:18.549Z,102194.52
2023-02-20T10:16:12.790Z,102194.80
2023-02-20T10:19:04.316Z,102189.11
2023-02-20T10:21:37.105Z,102185.77
2023-02-20T10:24:28.512Z,102187.17
2023-02-20T10:27:17.418Z,102181.43
2023-02-20T10:29:45.884Z,102180.82
2023-02-20T10:32:28.778Z,102181.45
2023-02-20T10:35:09.572Z,102180.36
2023-02-20T10:37:47.382Z,102179.67
2023-02-20T10:40:36.117Z,102168.74
2023-02-20T10:43:12.272Z,102164.86
2023-02-20T10:45:57.385Z,102163.73
2023-02-20T10:48:29.124Z,102156.66
2023-02-20T10:51:05.038Z,102154.61
2023-02-20T10:53:44.100Z,102146.93
2023-02-20T10:56:19.939Z,102141.39
2023-02-20T10:59:01.555Z,102136.45
2023-02-20T11:01:28.563Z,102126.42
2023-02-20T11:04:02.769Z,102125.46
2023-02-20T11:06:38.266Z,102123.27
2023-02-20T11:09:05.446Z,102121.74
2023-02-20T11:11:36.383Z,102118.42
2023-02-20T11:14:15.444Z,102117.29
2023-02-20T11:16:56.504Z,102111.33
2023-02-20T11:19:30.459Z,102109.58
2023-02-20T11:21:57.817Z,102107.90
2023-02-20T11:24:32.032Z,102105.44
2023-02-20T11:27:20.923Z,102091.98
2023-02-20T11:30:03.002Z,102088.45
2023-02-20T11:32:40.823Z,102081.74
2023-02-20T11:35:19.599Z,102074.00
2023-02-20T11:37:54.360Z,102069.48
2023-02-20T11:40:29.164Z,102066.50
2023-02-20T11:42:55.943Z,102059.05
2023-02-20T11:45:29.489Z,102058.54
2023-02-20T11:48:15.130Z,102052.17
2023-02-20T11:50:45.584Z,102046.41
2023-02-20T11:53:24.099Z,102042.81
2023-02-20T11:56:08.427Z,102039.65
2023-02-20T11:58:35.509Z,102034.71
2023-02-20T12:01:02.744Z,102029.09
2023-02-20T12:03:32.869Z,102027.36
2023-02-20T12:06:20.109Z,102030.17
2023-02-20T12:09:02.164Z,102034.06
2023-02-20T12:11:30.045Z,102031.98
2023-02-20T12:14:00.867Z,102031.44
2023-02-20T12:16:42.886Z,102031.98
2023-02-20T12:19:34.475Z,102027.67
2023-02-20T12:22:18.278Z,102026.57
2023-02-20T12:25:00.152Z,102021.49
2023-02-20T12:27:42.744Z,102020.40
2023-02-20T12:30:34.838Z,102018.84
2023-02-20T12:33:38.964Z,102016.94
2023-02-20T12:36:38.151Z,102021.45
2023-02-20T12:39:04.877Z,102017.27
2023-02-20T12:41:40.750Z,102016.20
2023-02-20T12:44:13.972Z,102008.60
2023-02-20T12:46:50.894Z,102004.60
2023-02-20T12:49:32.178Z,102001.42
2023-02-20T12:52:17.414Z,101989.77
2023-02-20T12:55:22.760Z,101984.59
2023-02-20T12:58:21.763Z,101977.52
2023-02-20T13:00:54.038Z,101972.21
2023-02-20T13:03:28.607Z,101971.91
2023-02-20T13:05:55.710Z,101968.48
2023-02-20T13:08:51.736Z,101961.09
2023-02-20T13:11:22.746Z,101965.17
2023-02-20T13:14:14.364Z,101963.27
2023-02-20T13:17:03.826Z,101960.91
2023-02-20T13:19:33.009Z,101956.69
2023-02-20T13:22:00.214Z,101956.35
2023-02-20T13:24:28.946Z,101952.20
2023-02-20T13:27:07.003Z,101949.28
2023-02-20T13:29:39.040Z,101949.78
2023-02-20T13:32:17.706Z,101945.08
2023-02-20T13:34:44.501Z,101942.42
2023-02-20T13:37:37.566Z,101939.36
2023-02-20T13:40:29.177Z,101943.10
2023-02-20T13:43:24.915Z,101936.59
2023-02-20T13:46:00.979Z,101935.45
2023-02-20T13:48:30.600Z,101932.59
2023-02-20T13:51:15.412Z,101931.66
2023-02-20T13:53:48.236Z,101923.84
2023-02-20T13:56:20.001Z,101915.02
2023-02-20T13:58:48.497Z,101914.20
2023-02-20T14:01:15.589Z,101908.96
2023-02-20T14:03:42.718Z,101908.55
2023-02-20T14:06:18.349Z,101908.46
2023-02-20T14:08:49.620Z,101908.58
2023-02-20T14:11:33.369Z,101905.98
2023-02-20T14:14:06.908Z,101905.77
2023-02-20T14:16:40.333Z,101900.91
2023-02-20T14:19:28.156Z,101903.52
2023-02-20T14:21:54.808Z,101907.01
2023-02-20T14:24:27.396Z,101905.34
2023-02-20T14:26:57.028Z,101903.52
2023-02-20T14:29:25.893Z,101902.33
2023-02-20T14:31:56.736Z,101902.29
2023-02-20T14:34:51.578Z,101898.98
2023-02-20T14:37:32.401Z,101892.63
2023-02-20T14:40:19.551Z,101896.60
2023-02-20T14:42:47.113Z,101899.02
2023-02-20T14:45:21.343Z,101897.42
2023-02-20T14:47:52.886Z,101896.58
2023-02-20T14:50:29.281Z,101902.02
2023-02-20T14:53:18.976Z,101899.12
2023-02-20T14:55:45.932Z,101900.22
2023-02-20T14:58:18.908Z,101899.33
2023-02-20T15:00:47.295Z,101899.13
2023-02-20T15:03:30.984Z,101891.10
2023-02-20T15:06:06.153Z,101885.60
2023-02-20T15:08:36.091Z,101889.59
2023-02-20T15:11:15.405Z,101884.40
2023-02-20T15:13:45.014Z,101885.42
2023-02-20T15:16:12.106Z,101887.07
2023-02-20T15:18:44.671Z,101884.23
2023-02-20T15:21:13.335Z,101883.57
2023-02-20T15:23:45.618Z,101877.56
2023-02-20T15:26:36.267Z,101876.23
2023-02-20T15:29:27.268Z,101873.48
2023-02-20T15:31:56.972Z,101877.46
2023-02-20T15:34:26.856Z,101881.60
2023-02-20T15:36:53.652Z,101879.61
2023-02-20T15:39:21.083Z,101882.70
2023-02-20T15:41:48.562Z,101884.36
2023-02-20T15:44:16.531Z,101882.73
2023-02-20T15:46:43.385Z,101882.64
2023-02-20T15:49:19.255Z,101878.85
2023-02-20T15:51:47.114Z,101881.89
2023-02-20T15:54:17.324Z,101880.90
2023-02-20T15:56:44.261Z,101885.67
2023-02-20T15:59:12.511Z,101884.52
2023-02-20T16:01:42.120Z,101881.52
2023-02-20T16:04:11.007Z,101879.57
2023-02-20T16:06:37.799Z,101883.89
2023-02-20T16:09:04.514Z,101881.95
2023-02-20T16:11:40.341Z,101881.60
2023-02-20T16:14:07.773Z,101880.20
2023-02-20T16:16:45.399Z,101881.27
2023-02-20T16:19:24.111Z,101876.69
2023-02-20T16:21:59.993Z,101883.29
2023-02-20T16:24:27.012Z,101880.95
2023-02-20T16:26:54.130Z,101877.19
2023-02-20T16:29:31.916Z,101870.50
2023-02-20T16:32:01.642Z,101874.63
2023-02-20T16:34:32.300Z,101878.40
2023-02-20T16:37:00.468Z,101876.77
2023-02-20T16:39:27.713Z,101878.46
2023-02-20T16:41:58.070Z,101876.80
2023-02-20T16:44:36.046Z,101879.93
2023-02-20T16:47:02.822Z,101882.48
2023-02-20T16:49:29.622Z,101879.40
2023-02-20T16:52:02.005Z,101881.79
2023-02-20T16:54:28.863Z,101885.23
2023-02-20T16:56:55.822Z,101891.38
2023-02-20T16:59:22.824Z,101894.33
2023-02-20T17:01:51.626Z,101891.92
2023-02-20T17:04:19.812Z,101894.09
2023-02-20T17:06:47.216Z,101893.73
2023-02-20T17:09:14.081Z,101896.50
2023-02-20T17:11:41.491Z,101895.73
2023-02-20T17:14:08.227Z,101895.13
2023-02-20T17:16:35.079Z,101895.73
2023-02-20T17:19:01.763Z,101901.46
2023-02-20T17:21:28.495Z,101902.52
2023-02-20T17:23:55.195Z,101904.02
2023-02-20T17:26:22.045Z,101905.39
2023-02-20T17:28:48.721Z,101910.91
2023-02-20T17:31:15.842Z,101910.25
2023-02-20T17:33:42.721Z,101912.95
2023-02-20T17:36:09.768Z,101910.48
2023-02-20T17:38:36.629Z,101905.57
2023-02-20T17:41:04.218Z,101906.96
2023-02-20T17:43:30.987Z,101906.60
2023-02-20T17:45:57.713Z,101906.44
2023-02-20T17:48:25.168Z,101900.86
2023-02-20T17:50:51.889Z,101904.92
2023-02-20T17:53:18.743Z,101904.70
2023-02-20T17:55:45.456Z,101904.42
2023-02-20T17:58:12.175Z,101902.17
2023-02-20T18:00:38.988Z,101905.21
2023-02-20T18:03:05.665Z,101906.52
2023-02-20T18:05:32.393Z,101906.21
2023-02-20T18:07:59.138Z,101905.27
2023-02-20T18:10:25.838Z,101906.45
2023-02-20T18:13:04.323Z,101909.54
2023-02-20T18:15:34.498Z,101910.19
2023-02-20T18:18:02.418Z,101914.14
2023-02-20T18:20:29.336Z,101915.64
2023-02-20T18:22:57.149Z,101918.04
2023-02-20T18:25:38.033Z,101923.53
2023-02-20T18:28:06.790Z,101917.36
2023-02-20T18:30:34.683Z,101918.98
2023-02-20T18:33:02.054Z,101917.02
2023-02-20T18:35:28.890Z,101918.10
2023-02-20T18:37:55.732Z,101916.54
2023-02-20T18:40:24.266Z,101920.47
2023-02-20T18:42:51.769Z,101921.27
2023-02-20T18:45:21.155Z,101917.04
2023-02-20T18:47:53.662Z,101921.13
2023-02-20T18:50:21.038Z,101918.35
2023-02-20T18:52:49.156Z,101920.66
2023-02-20T18:55:20.576Z,101916.13
2023-02-20T18:57:49.276Z,101915.81
2023-02-20T19:00:18.995Z,101915.52
2023-02-20T19:02:46.486Z,101915.20
2023-02-20T19:05:13.677Z,101915.27
2023-02-20T19:07:42.289Z,101916.17
2023-02-20T19:10:11.219Z,101915.54
2023-02-20T19:12:38.430Z,101911.59
2023-02-20T19:15:09.312Z,101910.52
2023-02-20T19:17:37.488Z,101910.41
2023-02-20T19:20:14.848Z,101906.91
2023-02-20T19:22:41.669Z,101908.79
2023-02-20T19:25:08.757Z,101902.91
2023-02-20T19:27:35.451Z,101905.14
2023-02-20T19:30:02.245Z,101902.39
2023-02-20T19:32:29.410Z,101900.34
2023-02-20T19:34:57.868Z,101899.17
2023-02-20T19:37:25.041Z,101901.14
2023-02-20T19:39:51.831Z,101900.67
2023-02-20T19:42:18.583Z,101899.52
2023-02-20T19:44:45.460Z,101898.75
2023-02-20T19:47:13.581Z,101892.48
2023-02-20T19:49:44.017Z,101888.94
2023-02-20T19:52:10.643Z,101892.19
2023-02-20T19:54:37.300Z,101895.24
2023-02-20T19:57:05.361Z,101892.70
2023-02-20T19:59:32.105Z,101892.25
2023-02-20T20:02:00.724Z,101890.34
2023-02-20T20:04:30.711Z,101890.28
2023-02-20T20:06:58.501Z,101893.21
2023-02-20T20:09:36.203Z,101894.08
2023-02-20T20:12:09.285Z,101892.24
2023-02-20T20:14:36.229Z,101894.52
2023-02-20T20:17:03.882Z,101892.20
2023-02-20T20:19:30.937Z,101895.86
2023-02-20T20:21:57.762Z,101892.80
2023-02-20T20:24:24.524Z,101890.89
2023-02-20T20:26:51.218Z,101889.61
2023-02-20T20:29:17.929Z,101886.55
2023-02-20T20:31:44.759Z,101881.27
2023-02-20T20:34:11.560Z,101882.84
2023-02-20T20:36:38.305Z,101878.27
2023-02-20T20:39:05.263Z,101879.10
2023-02-20T20:41:43.938Z,101876.66
2023-02-20T20:44:12.996Z,101872.88
2023-02-20T20:46:40.261Z,101866.61
2023-02-20T20:49:06.972Z,101869.88
2023-02-20T20:51:33.636Z,101865.02
2023-02-20T20:54:00.368Z,101862.70
2023-02-20T20:56:27.147Z,101856.34
2023-02-20T20:58:53.772Z,101856.49
2023-02-20T21:01:20.479Z,101860.91
2023-02-20T21:03:47.269Z,101860.45
2023-02-20T21:06:13.991Z,101863.13
2023-02-20T21:08:40.687Z,101862.00
2023-02-20T21:11:07.652Z,101862.03
2023-02-20T21:13:34.377Z,101858.33
2023-02-20T21:16:01.098Z,101853.41
2023-02-20T21:18:27.844Z,101845.56
2023-02-20T21:20:54.541Z,101843.94
2023-02-20T21:23:21.294Z,101842.53
2023-02-20T21:25:48.066Z,101838.44
2023-02-20T21:28:14.692Z,101834.38
2023-02-20T21:30:42.289Z,101838.92
2023-02-20T21:33:09.041Z,101836.06
2023-02-20T21:35:35.708Z,101834.06
2023-02-20T21:38:02.541Z,101830.52
2023-02-20T21:40:29.322Z,101827.95
2023-02-20T21:43:14.831Z,101826.29
2023-02-20T21:45:41.520Z,101826.94
2023-02-20T21:48:08.144Z,101826.21
2023-02-20T21:50:34.872Z,101825.65
2023-02-20T21:53:02.167Z,101823.38
2023-02-20T21:55:29.813Z,101819.09
2023-02-20T21:57:56.531Z,101815.54
2023-02-20T22:00:23.404Z,101815.98
2023-02-20T22:02:50.090Z,101809.21
2023-02-20T22:05:17.232Z,101806.67
2023-02-20T22:08:02.596Z,101809.09
2023-02-20T22:10:47.734Z,101809.49
2023-02-20T22:13:32.969Z,101802.16
2023-02-20T22:16:18.028Z,101802.10
2023-02-20T22:19:03.709Z,101799.16
2023-02-20T22:21:49.066Z,101795.02
2023-02-20T22:24:38.702Z,101792.52
2023-02-20T22:27:26.275Z,101789.21
2023-02-20T22:30:12.131Z,101788.41
2023-02-20T22:32:57.928Z,101784.03
2023-02-20T22:35:43.354Z,101782.97
2023-02-20T22:38:28.381Z,101778.09
2023-02-20T22:41:13.915Z,101775.32
2023-02-20T22:43:59.151Z,101773.52
2023-02-20T22:46:44.366Z,101773.30
2023-02-20T22:49:29.587Z,101773.73
2023-02-20T22:52:14.701Z,101767.57
2023-02-20T22:55:05.299Z,101772.23
2023-02-20T22:57:51.151Z,101769.80
2023-02-20T23:00:36.785Z,101771.40
2023-02-20T23:03:22.300Z,101774.21
2023-02-20T23:06:17.042Z,101774.30
2023-02-20T23:09:03.007Z,101773.13
2023-02-20T23:11:51.409Z,101771.17
2023-02-20T23:14:36.678Z,101769.11
2023-02-20T23:17:37.659Z,101767.18
2023-02-20T23:20:25.815Z,101768.27
2023-02-20T23:23:11.487Z,101764.77
2023-02-20T23:25:56.423Z,101761.58
2023-02-20T23:28:41.496Z,101759.59
2023-02-20T23:31:27.058Z,101761.94
2023-02-20T23:34:12.079Z,101760.93
2023-02-20T23:37:03.766Z,101761.71
2023-02-20T23:39:48.695Z,101766.40
2023-02-20T23:42:36.012Z,101765.35
2023-02-20T23:45:21.922Z,101759.91
2023-02-20T23:48:07.836Z,101757.77
2023-02-20T23:50:53.214Z,101759.17
2023-02-20T23:53:38.385Z,101757.96
2023-02-20T23:56:25.013Z,101758.55
2023-02-20T23:59:10.059Z,101755.11
